NCAR-RAP Real-Time Weather Data

Output produced by METARs form (24 July 2017  08:53 UTC)
found at http://weather.rap.ucar.edu/surface/
 
Conditions at: KSPG observed 24 July 2017  07:53 UTC
Temperature: 27.8°C (82°F)
Dewpoint: 25.6°C (78°F) [RH = 88%]
Pressure (altimeter): 29.99 inches Hg (1015.7 mb)
[Sea-level pressure: 1015.6 mb]
Winds: from the SSW (200 degrees) at 8 MPH (7 knots; 3.6 m/s)
Visibility: 10 or more miles (16+ km)
Ceiling: at least 12,000 feet AGL
Clouds: sky clear below 12,000 feet AGL
Present Weather: automated observation with no human augmentation;
there may or may not be significant weather present at this time
KSPG 240753Z AUTO 20007KT 10SM CLR 28/26 A2999 RMK AO2 SLP156 T02780256

Conditions at: KSPG observed 24 July 2017  06:53 UTC
Temperature: 27.8°C (82°F)
Dewpoint: 25.6°C (78°F) [RH = 88%]
Pressure (altimeter): 30.00 inches Hg (1016.0 mb)
[Sea-level pressure: 1015.9 mb]
Winds: from the S (180 degrees) at 9 MPH (8 knots; 4.2 m/s)
Visibility: 10 or more miles (16+ km)
Ceiling: at least 12,000 feet AGL
Clouds: sky clear below 12,000 feet AGL
Present Weather: automated observation with no human augmentation;
there may or may not be significant weather present at this time
KSPG 240653Z AUTO 18008KT 10SM CLR 28/26 A3000 RMK AO2 LTG DSNT N AND NW SLP159 T02780256

Conditions at: KSPG observed 24 July 2017  05:53 UTC
Temperature: 28.3°C (83°F)
Dewpoint: 25.0°C (77°F) [RH = 82%]
Pressure (altimeter): 30.00 inches Hg (1016.0 mb)
[Sea-level pressure: 1015.8 mb]
Winds: from the S (190 degrees) at 9 MPH (8 knots; 4.2 m/s)
Visibility: 10 or more miles (16+ km)
Ceiling: at least 12,000 feet AGL
Clouds: sky clear below 12,000 feet AGL
Present Weather: automated observation with no human augmentation;
there may or may not be significant weather present at this time
KSPG 240553Z AUTO 19008KT 10SM CLR 28/25 A3000 RMK AO2 SLP158 T02830250 10283 20272 58000

Conditions at: KSPG observed 24 July 2017  05:22 UTC
Temperature: 28.3°C (83°F)
Dewpoint: 25.0°C (77°F) [RH = 82%]
Pressure (altimeter): 30.02 inches Hg (1016.7 mb)
Winds: from the S (170 degrees) at 12 MPH (10 knots; 5.2 m/s)
Visibility: 10 or more miles (16+ km)
Ceiling: at least 12,000 feet AGL
Clouds: scattered clouds at 2700 feet AGL
scattered clouds at 3600 feet AGL
Present Weather: automated observation with no human augmentation;
there may or may not be significant weather present at this time
KSPG 240522Z AUTO 17010KT 10SM SCT027 SCT036 28/25 A3002 RMK AO2 T02830250

Conditions at: KSPG observed 24 July 2017  04:53 UTC
Temperature: 28.3°C (83°F)
Dewpoint: 25.0°C (77°F) [RH = 82%]
Pressure (altimeter): 30.03 inches Hg (1017.0 mb)
[Sea-level pressure: 1016.7 mb]
Winds: from the SSE (160 degrees) at 9 MPH (8 knots; 4.2 m/s)
Visibility: 10 or more miles (16+ km)
Ceiling: 2500 feet AGL
Clouds: broken clouds at 2500 feet AGL
Present Weather: automated observation with no human augmentation;
there may or may not be significant weather present at this time
KSPG 240453Z AUTO 16008KT 10SM BKN025 28/25 A3003 RMK AO2 SLP167 T02830250 402890233

Conditions at: KSPG observed 24 July 2017  03:53 UTC
Temperature: 28.3°C (83°F)
Dewpoint: 25.0°C (77°F) [RH = 82%]
Pressure (altimeter): 30.02 inches Hg (1016.7 mb)
[Sea-level pressure: 1016.6 mb]
Winds: calm
Visibility: 10 or more miles (16+ km)
Ceiling: at least 12,000 feet AGL
Clouds: sky clear below 12,000 feet AGL
Present Weather: automated observation with no human augmentation;
there may or may not be significant weather present at this time
KSPG 240353Z AUTO 00000KT 10SM CLR 28/25 A3002 RMK AO2 SLP166 T02830250

Conditions at: KSPG observed 24 July 2017  02:53 UTC
Temperature: 27.8°C (82°F)
Dewpoint: 24.4°C (76°F) [RH = 82%]
Pressure (altimeter): 30.00 inches Hg (1016.0 mb)
[Sea-level pressure: 1015.8 mb]
Winds: from the SW (220 degrees) at 5 MPH (4 knots; 2.1 m/s)
Visibility: 10 or more miles (16+ km)
Ceiling: at least 12,000 feet AGL
Clouds: sky clear below 12,000 feet AGL
Present Weather: automated observation with no human augmentation;
there may or may not be significant weather present at this time
KSPG 240253Z AUTO 22004KT 10SM CLR 28/24 A3000 RMK AO2 SLP158 T02780244 53009

Conditions at: KSPG observed 24 July 2017  01:53 UTC
Temperature: 27.8°C (82°F)
Dewpoint: 24.4°C (76°F) [RH = 82%]
Pressure (altimeter): 29.99 inches Hg (1015.7 mb)
[Sea-level pressure: 1015.4 mb]
Winds: calm
Visibility: 10 or more miles (16+ km)
Ceiling: at least 12,000 feet AGL
Clouds: sky clear below 12,000 feet AGL
Present Weather: automated observation with no human augmentation;
there may or may not be significant weather present at this time
KSPG 240153Z AUTO 00000KT 10SM CLR 28/24 A2999 RMK AO2 SLP154 T02780244

Conditions at: KSPG observed 24 July 2017  00:53 UTC
Temperature: 28.3°C (83°F)
Dewpoint: 24.4°C (76°F) [RH = 79%]
Pressure (altimeter): 29.97 inches Hg (1015.0 mb)
[Sea-level pressure: 1014.9 mb]
Winds: from the SW (220 degrees) at 5 MPH (4 knots; 2.1 m/s)
Visibility: 10 or more miles (16+ km)
Ceiling: at least 12,000 feet AGL
Clouds: sky clear below 12,000 feet AGL
Present Weather: no significant weather observed at this time
KSPG 240053Z 22004KT 10SM CLR 28/24 A2997 RMK AO2 SLP149 T02830244

Conditions at: KSPG observed 23 July 2017  23:53 UTC
Temperature: 28.3°C (83°F)
Dewpoint: 23.9°C (75°F) [RH = 77%]
Pressure (altimeter): 29.97 inches Hg (1015.0 mb)
[Sea-level pressure: 1014.9 mb]
Winds: from the SSW (200 degrees) at 9 MPH (8 knots; 4.2 m/s)
Visibility: 10 or more miles (16+ km)
Ceiling: at least 12,000 feet AGL
Clouds: sky clear below 12,000 feet AGL
Present Weather: no significant weather observed at this time
KSPG 232353Z 20008KT 10SM CLR 28/24 A2997 RMK AO2 SLP149 T02830239 10289 20272 56016

Conditions at: KSPG observed 23 July 2017  22:53 UTC
Temperature: 28.3°C (83°F)
Dewpoint: 22.8°C (73°F) [RH = 72%]
Pressure (altimeter): 29.98 inches Hg (1015.3 mb)
[Sea-level pressure: 1015.1 mb]
Winds: from the SSE (160 degrees) at 6 MPH (5 knots; 2.6 m/s)
Visibility: 10 or more miles (16+ km)
Ceiling: at least 12,000 feet AGL
Clouds: sky clear below 12,000 feet AGL
Present Weather: no significant weather observed at this time
KSPG 232253Z 16005KT 10SM CLR 28/23 A2998 RMK AO2 SLP151 T02830228

Conditions at: KSPG observed 23 July 2017  21:53 UTC
Temperature: 28.3°C (83°F)
Dewpoint: 22.2°C (72°F) [RH = 70%]
Pressure (altimeter): 30.00 inches Hg (1016.0 mb)
[Sea-level pressure: 1015.9 mb]
Winds: calm
Visibility: 10 or more miles (16+ km)
Ceiling: at least 12,000 feet AGL
Clouds: sky clear below 12,000 feet AGL
Present Weather: no significant weather observed at this time
KSPG 232153Z 00000KT 10SM CLR 28/22 A3000 RMK AO2 SLP159 T02830222

Conditions at: KSPG observed 23 July 2017  20:53 UTC
Temperature: 27.8°C (82°F)
Dewpoint: 22.8°C (73°F) [RH = 74%]
Pressure (altimeter): 30.02 inches Hg (1016.7 mb)
[Sea-level pressure: 1016.4 mb]
Winds: calm
Visibility: 10 or more miles (16+ km)
Ceiling: at least 12,000 feet AGL
Clouds: sky clear below 12,000 feet AGL
Present Weather: no significant weather observed at this time
KSPG 232053Z 00000KT 10SM CLR 28/23 A3002 RMK AO2 SLP164 T02780228 56015

Conditions at: KSPG observed 23 July 2017  19:53 UTC
Temperature: 27.8°C (82°F)
Dewpoint: 23.3°C (74°F) [RH = 77%]
Pressure (altimeter): 30.03 inches Hg (1017.0 mb)
[Sea-level pressure: 1016.8 mb]
Winds: from the N (10 degrees) at 5 MPH (4 knots; 2.1 m/s)
Visibility: 10 or more miles (16+ km)
Ceiling: at least 12,000 feet AGL
Clouds: sky clear below 12,000 feet AGL
Present Weather: no significant weather observed at this time
KSPG 231953Z 01004KT 10SM CLR 28/23 A3003 RMK AO2 SLP168 T02780233

Conditions at: KSPG observed 23 July 2017  18:53 UTC
Temperature: 27.8°C (82°F)
Dewpoint: 22.8°C (73°F) [RH = 74%]
Pressure (altimeter): 30.03 inches Hg (1017.0 mb)
[Sea-level pressure: 1016.9 mb]
Winds: calm
Visibility: 10 or more miles (16+ km)
Ceiling: at least 12,000 feet AGL
Clouds: sky clear below 12,000 feet AGL
Present Weather: no significant weather observed at this time
KSPG 231853Z 00000KT 10SM CLR 28/23 A3003 RMK AO2 SLP169 T02780228

Conditions at: KSPG observed 23 July 2017  17:53 UTC
Temperature: 27.8°C (82°F)
Dewpoint: 23.3°C (74°F) [RH = 77%]
Pressure (altimeter): 30.06 inches Hg (1018.0 mb)
[Sea-level pressure: 1017.9 mb]
Winds: from the ENE (60 degrees) at 3 MPH (3 knots; 1.6 m/s)
Visibility: 10 or more miles (16+ km)
Ceiling: 6000 feet AGL
Clouds: broken clouds at 6000 feet AGL
Present Weather: no significant weather observed at this time
KSPG 231753Z 06003KT 10SM BKN060 28/23 A3006 RMK AO2 SLP179 60064 T02780233 10278 20233 55003

Conditions at: KSPG observed 23 July 2017  16:53 UTC
Temperature: 26.7°C (80°F)
Dewpoint: 23.3°C (74°F) [RH = 82%]
Pressure (altimeter): 30.06 inches Hg (1018.0 mb)
[Sea-level pressure: 1017.9 mb]
Winds: calm
Visibility: 10 or more miles (16+ km)
Ceiling: at least 12,000 feet AGL
Clouds: sky clear below 12,000 feet AGL
Present Weather: no significant weather observed at this time
KSPG 231653Z 00000KT 10SM CLR 27/23 A3006 RMK AO2 RAE14 SLP179 P0000 T02670233

Conditions at: KSPG observed 23 July 2017  15:53 UTC
Temperature: 25.0°C (77°F)
Dewpoint: 22.8°C (73°F) [RH = 88%]
Pressure (altimeter): 30.07 inches Hg (1018.4 mb)
[Sea-level pressure: 1018.1 mb]
Winds: from the E (90 degrees) at 3 MPH (3 knots; 1.6 m/s)
Visibility: 9 miles (14 km)
Ceiling: 11000 feet AGL
Clouds: broken clouds at 11000 feet AGL
Present Weather: -RA  (light rain)
KSPG 231553Z 09003KT 9SM -RA BKN110 25/23 A3007 RMK AO2 LTG DSNT SE AND S TSE01 SLP181 P0008 T02500228

Conditions at: KSPG observed 23 July 2017  15:18 UTC
Temperature: 24.4°C (76°F)
Dewpoint: 22.2°C (72°F) [RH = 88%]
Pressure (altimeter): 30.06 inches Hg (1018.0 mb)
Winds: calm
Visibility: 6 miles (10 km)
Ceiling: 11000 feet AGL
Clouds: broken clouds at 11000 feet AGL
Present Weather: -RA BR  (light rain, mist)
KSPG 231518Z 00000KT 6SM -RA BR BKN110 24/22 A3006 RMK AO2 LTG DSNT S AND SW TSE01 P0004 T02440222

Conditions at: KSPG observed 23 July 2017  15:07 UTC
Temperature: 24.4°C (76°F)
Dewpoint: 22.2°C (72°F) [RH = 88%]
Pressure (altimeter): 30.07 inches Hg (1018.4 mb)
Winds: from the NNE (20 degrees) at 3 MPH (3 knots; 1.6 m/s)
Visibility: 6 miles (10 km)
Ceiling: 11000 feet AGL
Clouds: broken clouds at 11000 feet AGL
Present Weather: VCTS RA BR  (thunderstorm in vicinity, rain, mist)
KSPG 231507Z 02003KT 6SM VCTS RA BR BKN110 24/22 A3007 RMK AO2 LTG DSNT ALQDS TSE01 P0002 T02440222

Conditions at: KSPG observed 23 July 2017  14:53 UTC
Temperature: 25.0°C (77°F)
Dewpoint: 22.2°C (72°F) [RH = 84%]
Pressure (altimeter): 30.07 inches Hg (1018.4 mb)
[Sea-level pressure: 1018.3 mb]
Winds: calm
Visibility: 6 miles (10 km)
Ceiling: at least 12,000 feet AGL
Clouds: scattered clouds at 12000 feet AGL
Present Weather: -TSRA  (light rain associated with thunderstorm(s))
KSPG 231453Z 00000KT 6SM -TSRA SCT120 25/22 A3007 RMK AO2 LTG DSNT E-SW TSE20B27E42B46 SLP183 P0022 60056 T02500222 51010

Conditions at: KSPG observed 23 July 2017  14:33 UTC
Temperature: 24.4°C (76°F)
Dewpoint: 21.7°C (71°F) [RH = 85%]
Pressure (altimeter): 30.07 inches Hg (1018.4 mb)
Winds: from the W (260 degrees) at 5 MPH (4 knots; 2.1 m/s)
Visibility: 5 miles (8 km)
Ceiling: 11000 feet AGL
Clouds: few clouds at 6500 feet AGL
broken clouds at 11000 feet AGL
Present Weather: -TSRA  (light rain associated with thunderstorm(s))
KSPG 231433Z 26004KT 5SM -TSRA FEW065 BKN110 24/22 A3007 RMK AO2 LTG DSNT ALQDS TSE20B27 P0021 T02440217

Conditions at: KSPG observed 23 July 2017  14:26 UTC
Temperature: 24.4°C (76°F)
Dewpoint: 21.7°C (71°F) [RH = 85%]
Pressure (altimeter): 30.06 inches Hg (1018.0 mb)
Winds: from the WSW (250 degrees) at 6 MPH (5 knots; 2.6 m/s)
Visibility: 4 miles (6 km)
Ceiling: 11000 feet AGL
Clouds: few clouds at 5000 feet AGL
broken clouds at 11000 feet AGL
Present Weather: VCTS RA  (thunderstorm in vicinity, rain)
KSPG 231426Z 25005KT 4SM VCTS RA FEW050 BKN110 24/22 A3006 RMK AO2 LTG DSNT ALQDS TSE20 P0020 T02440217

Conditions at: KSPG observed 23 July 2017  14:17 UTC
Temperature: 23.9°C (75°F)
Dewpoint: 21.7°C (71°F) [RH = 88%]
Pressure (altimeter): 30.07 inches Hg (1018.4 mb)
Winds: calm
Visibility: 3 miles (5 km)
Ceiling: 3800 feet AGL
Clouds: broken clouds at 3800 feet AGL
overcast cloud deck at 11000 feet AGL
Present Weather: TSRA BR  (rain associated with thunderstorm(s), mist)
KSPG 231417Z 00000KT 3SM TSRA BR BKN038 OVC110 24/22 A3007 RMK AO2 LTG DSNT ALQDS P0019 T02390217

Conditions at: KSPG observed 23 July 2017  14:07 UTC
Temperature: 23.3°C (74°F)
Dewpoint: 21.7°C (71°F) [RH = 91%]
Pressure (altimeter): 30.06 inches Hg (1018.0 mb)
Winds: from the SSW (200 degrees) at 5 MPH (4 knots; 2.1 m/s)
Visibility: 1.25 miles (2.01 km)
Ceiling: 3800 feet AGL
Clouds: few clouds at 1600 feet AGL
overcast cloud deck at 3800 feet AGL
Present Weather: +TSRA BR  (heavy rain associated with thunderstorm(s), mist)
KSPG 231407Z 20004KT 1 1/4SM +TSRA BR FEW016 OVC038 23/22 A3006 RMK AO2 LTG DSNT ALQDS P0016 T02330217

Conditions at: KSPG observed 23 July 2017  13:53 UTC
Temperature: 24.4°C (76°F)
Dewpoint: 22.2°C (72°F) [RH = 88%]
Pressure (altimeter): 30.07 inches Hg (1018.4 mb)
[Sea-level pressure: 1018.3 mb]
Winds: from the WSW (250 degrees) at 12 MPH (10 knots; 5.2 m/s)
gusting to 22 MPH (19 knots; 9.9 m/s)
Visibility: 1.00 miles (1.61 km)
Ceiling: 1900 feet AGL
Clouds: scattered clouds at 1200 feet AGL
broken clouds at 1900 feet AGL
overcast cloud deck at 2900 feet AGL
Present Weather: +TSRA BR  (heavy rain associated with thunderstorm(s), mist)
KSPG 231353Z 25010G19KT 1SM +TSRA BR SCT012 BKN019 OVC029 24/22 A3007 RMK AO2 LTG DSNT ALQDS RAB01 TSB1259E13B35 SLP183 P0034 T02440222

Conditions at: KSPG observed 23 July 2017  13:43 UTC
Temperature: 26.1°C (79°F)
Dewpoint: 23.3°C (74°F) [RH = 85%]
Pressure (altimeter): 30.08 inches Hg (1018.7 mb)
Winds: from the W (260 degrees) at 17 MPH (15 knots; 7.8 m/s)
Visibility: 1.75 miles (2.82 km)
Ceiling: 1200 feet AGL
Clouds: broken clouds at 1200 feet AGL
broken clouds at 2100 feet AGL
overcast cloud deck at 2900 feet AGL
Present Weather: TSRA  (rain associated with thunderstorm(s))
KSPG 231343Z 26015KT 1 3/4SM TSRA BKN012 BKN021 OVC029 26/23 A3008 RMK AO2 LTG DSNT ALQDS RAB01 TSB1259E13B35 PRESRR P0009 T02610233

Conditions at: KSPG observed 23 July 2017  13:41 UTC
Temperature: 26.7°C (80°F)
Dewpoint: 23.3°C (74°F) [RH = 82%]
Pressure (altimeter): 30.08 inches Hg (1018.7 mb)
Winds: from the WSW (240 degrees) at 13 MPH (11 knots; 5.7 m/s)
Visibility: 3 miles (5 km)
Ceiling: 1200 feet AGL
Clouds: broken clouds at 1200 feet AGL
broken clouds at 2300 feet AGL
overcast cloud deck at 2900 feet AGL
Present Weather: TSRA  (rain associated with thunderstorm(s))
KSPG 231341Z 24011KT 3SM TSRA BKN012 BKN023 OVC029 27/23 A3008 RMK AO2 LTG DSNT ALQDS RAB01 TSB1259E13B35 PRESRR P0004 T02670233

Conditions at: KSPG observed 23 July 2017  13:34 UTC
Temperature: 26.7°C (80°F)
Dewpoint: 23.3°C (74°F) [RH = 82%]
Pressure (altimeter): 30.07 inches Hg (1018.4 mb)
Winds: from the WNW (300 degrees) at 7 MPH (6 knots; 3.1 m/s)
Visibility: 7 miles (11 km)
Ceiling: 1300 feet AGL
Clouds: broken clouds at 1300 feet AGL
broken clouds at 2800 feet AGL
overcast cloud deck at 8500 feet AGL
Present Weather: VCTS -RA  (thunderstorm in vicinity, light rain)
KSPG 231334Z 30006KT 7SM VCTS -RA BKN013 BKN028 OVC085 27/23 A3007 RMK AO2 LTG DSNT ALQDS RAB01 TSB1259E13 P0001 T02670233

Conditions at: KSPG observed 23 July 2017  13:19 UTC
Temperature: 27.8°C (82°F)
Dewpoint: 24.4°C (76°F) [RH = 82%]
Pressure (altimeter): 30.05 inches Hg (1017.7 mb)
Winds: from the NW (320 degrees) at 5 MPH (4 knots; 2.1 m/s)
Visibility: 10 or more miles (16+ km)
Ceiling: 6500 feet AGL
Clouds: scattered clouds at 1300 feet AGL
scattered clouds at 2600 feet AGL
broken clouds at 6500 feet AGL
Present Weather: VCTS -RA  (thunderstorm in vicinity, light rain)
KSPG 231319Z 32004KT 10SM VCTS -RA SCT013 SCT026 BKN065 28/24 A3005 RMK AO2 LTG DSNT ALQDS RAB01 TSB1259E13 P0000 T02780244

Conditions at: KSPG observed 23 July 2017  13:05 UTC
Temperature: 27.2°C (81°F)
Dewpoint: 23.9°C (75°F) [RH = 82%]
Pressure (altimeter): 30.05 inches Hg (1017.7 mb)
Winds: calm
Visibility: 10 or more miles (16+ km)
Ceiling: 8500 feet AGL
Clouds: few clouds at 2300 feet AGL
scattered clouds at 3400 feet AGL
broken clouds at 8500 feet AGL
Present Weather: -TSRA  (light rain associated with thunderstorm(s))
KSPG 231305Z 00000KT 10SM -TSRA FEW023 SCT034 BKN085 27/24 A3005 RMK AO2 LTG DSNT ALQDS RAB01 TSB1259 P0000 T02720239

Conditions at: KSPG observed 23 July 2017  12:53 UTC
Temperature: 27.2°C (81°F)
Dewpoint: 23.3°C (74°F) [RH = 79%]
Pressure (altimeter): 30.04 inches Hg (1017.4 mb)
[Sea-level pressure: 1017.3 mb]
Winds: calm
Visibility: 10 or more miles (16+ km)
Ceiling: at least 12,000 feet AGL
Clouds: few clouds at 2800 feet AGL
scattered clouds at 8500 feet AGL
Present Weather: no significant weather observed at this time
KSPG 231253Z 00000KT 10SM FEW028 SCT085 27/23 A3004 RMK AO2 LTG DSNT ALQDS RAB34E50 SLP173 P0000 T02720233

Conditions at: KSPG observed 23 July 2017  11:53 UTC
Temperature: 27.2°C (81°F)
Dewpoint: 22.8°C (73°F) [RH = 77%]
Pressure (altimeter): 30.03 inches Hg (1017.0 mb)
[Sea-level pressure: 1016.7 mb]
Winds: from the WSW (250 degrees) at 5 MPH (4 knots; 2.1 m/s)
Visibility: 10 or more miles (16+ km)
Ceiling: at least 12,000 feet AGL
Clouds: scattered clouds at 1900 feet AGL
Present Weather: no significant weather observed at this time
KSPG 231153Z 25004KT 10SM SCT019 27/23 A3003 RMK AO2 LTG DSNT W AND NW RAE25 SLP167 P0000 60006 70013 T02720228 10278 20267 53010

Conditions at: KSPG observed 23 July 2017  11:18 UTC
Temperature: 26.7°C (80°F)
Dewpoint: 25.0°C (77°F) [RH = 90%]
Pressure (altimeter): 30.02 inches Hg (1016.7 mb)
Winds: from the WSW (250 degrees) at 6 MPH (5 knots; 2.6 m/s)
Visibility: 10 or more miles (16+ km)
Ceiling: 4900 feet AGL
Clouds: scattered clouds at 1800 feet AGL
scattered clouds at 2600 feet AGL
broken clouds at 4900 feet AGL
Present Weather: -RA  (light rain)
KSPG 231118Z 25005KT 10SM -RA SCT018 SCT026 BKN049 27/25 A3002 RMK AO2 LTG DSNT S AND SW P0000 T02670250

Conditions at: KSPG observed 23 July 2017  10:59 UTC
Temperature: 27.2°C (81°F)
Dewpoint: 25.0°C (77°F) [RH = 88%]
Pressure (altimeter): 30.00 inches Hg (1016.0 mb)
Winds: from the SW (220 degrees) at 3 MPH (3 knots; 1.6 m/s)
Visibility: 10 or more miles (16+ km)
Ceiling: 6000 feet AGL
Clouds: scattered clouds at 1300 feet AGL
scattered clouds at 2200 feet AGL
broken clouds at 6000 feet AGL
Present Weather: VCTS -RA  (thunderstorm in vicinity, light rain)
KSPG 231059Z 22003KT 10SM VCTS -RA SCT013 SCT022 BKN060 27/25 A3000 RMK AO2 LTG DSNT S-W P0000 T02720250

Conditions at: KSPG observed 23 July 2017  10:53 UTC
Temperature: 27.2°C (81°F)
Dewpoint: 25.0°C (77°F) [RH = 88%]
Pressure (altimeter): 30.01 inches Hg (1016.3 mb)
[Sea-level pressure: 1016.0 mb]
Winds: from the SW (220 degrees) at 6 MPH (5 knots; 2.6 m/s)
Visibility: 8 miles (13 km)
Ceiling: 1500 feet AGL
Clouds: broken clouds at 1500 feet AGL
broken clouds at 4300 feet AGL
overcast cloud deck at 7000 feet AGL
Present Weather: -RA  (light rain)
KSPG 231053Z 22005KT 8SM -RA BKN015 BKN043 OVC070 27/25 A3001 RMK AO2 LTG DSNT S AND SW TSB04E19 SLP160 P0003 T02720250

Conditions at: KSPG observed 23 July 2017  10:40 UTC
Temperature: 27.2°C (81°F)
Dewpoint: 25.0°C (77°F) [RH = 88%]
Pressure (altimeter): 30.00 inches Hg (1016.0 mb)
Winds: from the S (190 degrees) at 7 MPH (6 knots; 3.1 m/s)
Visibility: 6 miles (10 km)
Ceiling: 1100 feet AGL
Clouds: broken clouds at 1100 feet AGL
broken clouds at 1600 feet AGL
Present Weather: RA BR  (rain, mist)
KSPG 231040Z 19006KT 6SM RA BR BKN011 BKN016 27/25 A3000 RMK AO2 LTG DSNT S AND SW TSB04E19 P0002 T02720250

Conditions at: KSPG observed 23 July 2017  10:32 UTC
Temperature: 27.2°C (81°F)
Dewpoint: 25.0°C (77°F) [RH = 88%]
Pressure (altimeter): 30.00 inches Hg (1016.0 mb)
Winds: from the SSW (210 degrees) at 3 MPH (3 knots; 1.6 m/s)
Visibility: 10 or more miles (16+ km)
Ceiling: 1100 feet AGL
Clouds: broken clouds at 1100 feet AGL
broken clouds at 1800 feet AGL
overcast cloud deck at 11000 feet AGL
Present Weather: VCTS -RA  (thunderstorm in vicinity, light rain)
KSPG 231032Z 21003KT 10SM VCTS -RA BKN011 BKN018 OVC110 27/25 A3000 RMK AO2 LTG DSNT S AND SW TSB04E19 P0000 T02720250

Conditions at: KSPG observed 23 July 2017  10:25 UTC
Temperature: 27.2°C (81°F)
Dewpoint: 25.0°C (77°F) [RH = 88%]
Pressure (altimeter): 30.00 inches Hg (1016.0 mb)
Winds: from the SW (220 degrees) at 3 MPH (3 knots; 1.6 m/s)
Visibility: 10 or more miles (16+ km)
Ceiling: 900 feet AGL
Clouds: broken clouds at 900 feet AGL
overcast cloud deck at 1800 feet AGL
Present Weather: VCTS -RA  (thunderstorm in vicinity, light rain)
KSPG 231025Z 22003KT 10SM VCTS -RA BKN009 OVC018 27/25 A3000 RMK AO2 LTG DSNT ALQDS TSB04E19 CIG 008V014 P0000 T02720250

Conditions at: KSPG observed 23 July 2017  10:10 UTC
Temperature: 27.2°C (81°F)
Dewpoint: 25.0°C (77°F) [RH = 88%]
Pressure (altimeter): 30.00 inches Hg (1016.0 mb)
Winds: from the WSW (250 degrees) at 5 MPH (4 knots; 2.1 m/s)
Visibility: 10 or more miles (16+ km)
Ceiling: 800 feet AGL
Clouds: broken clouds at 800 feet AGL
broken clouds at 2600 feet AGL
broken clouds at 7500 feet AGL
Present Weather: -TSRA  (light rain associated with thunderstorm(s))
KSPG 231010Z 25004KT 10SM -TSRA BKN008 BKN026 BKN075 27/25 A3000 RMK AO2 LTG DSNT S-W TSB04 P0000 T02720250

Conditions at: KSPG observed 23 July 2017  10:02 UTC
Temperature: 27.2°C (81°F)
Dewpoint: 25.0°C (77°F) [RH = 88%]
Pressure (altimeter): 30.00 inches Hg (1016.0 mb)
Winds: from the WSW (250 degrees) at 3 MPH (3 knots; 1.6 m/s)
Visibility: 9 miles (14 km)
Ceiling: 900 feet AGL
Clouds: broken clouds at 900 feet AGL
broken clouds at 2600 feet AGL
Present Weather: VCTS -RA  (thunderstorm in vicinity, light rain)
KSPG 231002Z AUTO 25003KT 9SM VCTS -RA BKN009 BKN026 27/25 A3000 RMK AO2 LTG DSNT S-W P0000 T02720250

Conditions at: KSPG observed 23 July 2017  09:53 UTC
Temperature: 27.2°C (81°F)
Dewpoint: 25.0°C (77°F) [RH = 88%]
Pressure (altimeter): 30.00 inches Hg (1016.0 mb)
[Sea-level pressure: 1015.7 mb]
Winds: from the SSW (200 degrees) at 7 MPH (6 knots; 3.1 m/s)
Visibility: 7 miles (11 km)
Ceiling: 2800 feet AGL
Clouds: few clouds at 900 feet AGL
broken clouds at 2800 feet AGL
broken clouds at 7500 feet AGL
Present Weather: -RA  (light rain)
KSPG 230953Z AUTO 20006KT 7SM -RA FEW009 BKN028 BKN075 27/25 A3000 RMK AO2 LTG DSNT S-W RAB0855 TSE00B06E25 SLP157 P0003 T02720250

Conditions at: KSPG observed 23 July 2017  09:44 UTC
Temperature: 27.2°C (81°F)
Dewpoint: 25.0°C (77°F) [RH = 88%]
Pressure (altimeter): 30.00 inches Hg (1016.0 mb)
Winds: from the S (180 degrees) at 8 MPH (7 knots; 3.6 m/s)
Visibility: 8 miles (13 km)
Ceiling: at least 12,000 feet AGL
Clouds: few clouds at 800 feet AGL
scattered clouds at 3000 feet AGL
scattered clouds at 12000 feet AGL
Present Weather: -RA  (light rain)
KSPG 230944Z AUTO 18007KT 8SM -RA FEW008 SCT030 SCT120 27/25 A3000 RMK AO2 LTG DSNT S-W RAB0855 TSE00B06E25 P0002 T02720250

Conditions at: KSPG observed 23 July 2017  09:28 UTC
Temperature: 27.2°C (81°F)
Dewpoint: 25.0°C (77°F) [RH = 88%]
Pressure (altimeter): 29.99 inches Hg (1015.7 mb)
Winds: from the S (190 degrees) at 7 MPH (6 knots; 3.1 m/s)
Visibility: 8 miles (13 km)
Ceiling: 12000 feet AGL
Clouds: few clouds at 3900 feet AGL
scattered clouds at 5000 feet AGL
broken clouds at 12000 feet AGL
Present Weather: -RA  (light rain)
KSPG 230928Z AUTO 19006KT 8SM -RA FEW039 SCT050 BKN120 27/25 A2999 RMK AO2 LTG DSNT SW AND W RAB0855 TSE00B06E25 P0001 T02720250

Conditions at: KSPG observed 23 July 2017  08:53 UTC
Temperature: 27.2°C (81°F)
Dewpoint: 24.4°C (76°F) [RH = 85%]
Pressure (altimeter): 29.99 inches Hg (1015.7 mb)
[Sea-level pressure: 1015.6 mb]
Winds: from the S (180 degrees) at 9 MPH (8 knots; 4.2 m/s)
Visibility: 10 or more miles (16+ km)
Ceiling: at least 12,000 feet AGL
Clouds: few clouds at 2600 feet AGL
few clouds at 9000 feet AGL
scattered clouds at 11000 feet AGL
Present Weather: TS  (thunderstorm)
KSPG 230853Z AUTO 18008KT 10SM TS FEW026 FEW090 SCT110 27/24 A2999 RMK AO2 LTG DSNT SW-NW RAB43E52 TSB07E22B31 SLP156 P0000 60000 T02720244 55013

Conditions at: KSPG observed 23 July 2017  08:37 UTC
Temperature: 27.2°C (81°F)
Dewpoint: 25.0°C (77°F) [RH = 88%]
Pressure (altimeter): 29.99 inches Hg (1015.7 mb)
Winds: from the S (170 degrees) at 10 MPH (9 knots; 4.7 m/s)
Visibility: 10 or more miles (16+ km)
Ceiling: at least 12,000 feet AGL
Clouds: few clouds at 2600 feet AGL
scattered clouds at 11000 feet AGL
Present Weather: TS  (thunderstorm)
KSPG 230837Z AUTO 17009KT 10SM TS FEW026 SCT110 27/25 A2999 RMK AO2 LTG DSNT SW-NW TSB07E22B31 T02720250

Conditions at: KSPG observed 23 July 2017  08:28 UTC
Temperature: 27.8°C (82°F)
Dewpoint: 25.0°C (77°F) [RH = 85%]
Pressure (altimeter): 29.99 inches Hg (1015.7 mb)
Winds: from the S (170 degrees) at 13 MPH (11 knots; 5.7 m/s)
Visibility: 10 or more miles (16+ km)
Ceiling: at least 12,000 feet AGL
Clouds: few clouds at 2500 feet AGL
Present Weather: VCTS  (thunderstorm in vicinity)
KSPG 230828Z AUTO 17011KT 10SM VCTS FEW025 28/25 A2999 RMK AO2 LTG DSNT SW-NW TSB07E22 T02780250

Conditions at: KSPG observed 23 July 2017  08:13 UTC
Temperature: 27.8°C (82°F)
Dewpoint: 25.0°C (77°F) [RH = 85%]
Pressure (altimeter): 29.99 inches Hg (1015.7 mb)
Winds: from the SSE (160 degrees) at 13 MPH (11 knots; 5.7 m/s)
Visibility: 10 or more miles (16+ km)
Ceiling: at least 12,000 feet AGL
Clouds: sky clear below 12,000 feet AGL
Present Weather: TS  (thunderstorm)
KSPG 230813Z AUTO 16011KT 10SM TS CLR 28/25 A2999 RMK AO2 LTG DSNT SW-NW TSB07 T02780250

Conditions at: KSPG observed 23 July 2017  07:53 UTC
Temperature: 27.2°C (81°F)
Dewpoint: 25.0°C (77°F) [RH = 88%]
Pressure (altimeter): 29.99 inches Hg (1015.7 mb)
[Sea-level pressure: 1015.4 mb]
Winds: from the S (170 degrees) at 15 MPH (13 knots; 6.8 m/s)
Visibility: 10 or more miles (16+ km)
Ceiling: at least 12,000 feet AGL
Clouds: few clouds at 3000 feet AGL
Present Weather: VCTS  (thunderstorm in vicinity)
KSPG 230753Z AUTO 17013KT 10SM VCTS FEW030 27/25 A2999 RMK AO2 LTG DSNT NW SLP154 T02720250

Conditions at: KSPG observed 23 July 2017  06:53 UTC
Temperature: 27.8°C (82°F)
Dewpoint: 24.4°C (76°F) [RH = 82%]
Pressure (altimeter): 30.01 inches Hg (1016.3 mb)
[Sea-level pressure: 1016.1 mb]
Winds: from the SSE (160 degrees) at 13 MPH (11 knots; 5.7 m/s)
Visibility: 10 or more miles (16+ km)
Ceiling: 5000 feet AGL
Clouds: scattered clouds at 2400 feet AGL
broken clouds at 5000 feet AGL
broken clouds at 7500 feet AGL
Present Weather: automated observation with no human augmentation;
there may or may not be significant weather present at this time
KSPG 230653Z AUTO 16011KT 10SM SCT024 BKN050 BKN075 28/24 A3001 RMK AO2 RAB29E38 SLP161 P0000 T02780244

Conditions at: KSPG observed 23 July 2017  05:53 UTC
Temperature: 27.8°C (82°F)
Dewpoint: 25.6°C (78°F) [RH = 88%]
Pressure (altimeter): 30.03 inches Hg (1017.0 mb)
[Sea-level pressure: 1016.9 mb]
Winds: from the SE (140 degrees) at 10 MPH (9 knots; 4.7 m/s)
Visibility: 10 or more miles (16+ km)
Ceiling: at least 12,000 feet AGL
Clouds: few clouds at 1300 feet AGL
scattered clouds at 9500 feet AGL
Present Weather: automated observation with no human augmentation;
there may or may not be significant weather present at this time
KSPG 230553Z AUTO 14009KT 10SM FEW013 SCT095 28/26 A3003 RMK AO2 SLP169 T02780256 10294 20278 50003

Conditions at: KSPG observed 23 July 2017  04:53 UTC
Temperature: 28.9°C (84°F)
Dewpoint: 23.9°C (75°F) [RH = 74%]
Pressure (altimeter): 30.03 inches Hg (1017.0 mb)
[Sea-level pressure: 1017.0 mb]
Winds: calm
Visibility: 10 or more miles (16+ km)
Ceiling: at least 12,000 feet AGL
Clouds: sky clear below 12,000 feet AGL
Present Weather: automated observation with no human augmentation;
there may or may not be significant weather present at this time
KSPG 230453Z AUTO 00000KT 10SM CLR 29/24 A3003 RMK AO2 SLP170 T02890239 403110267

Conditions at: KSPG observed 23 July 2017  03:53 UTC
Temperature: 28.3°C (83°F)
Dewpoint: 24.4°C (76°F) [RH = 79%]
Pressure (altimeter): 30.03 inches Hg (1017.0 mb)
[Sea-level pressure: 1016.7 mb]
Winds: from the W (270 degrees) at 3 MPH (3 knots; 1.6 m/s)
Visibility: 10 or more miles (16+ km)
Ceiling: at least 12,000 feet AGL
Clouds: sky clear below 12,000 feet AGL
Present Weather: automated observation with no human augmentation;
there may or may not be significant weather present at this time
KSPG 230353Z AUTO 27003KT 10SM CLR 28/24 A3003 RMK AO2 SLP167 T02830244

Conditions at: KSPG observed 23 July 2017  02:53 UTC
Temperature: 28.3°C (83°F)
Dewpoint: 25.0°C (77°F) [RH = 82%]
Pressure (altimeter): 30.02 inches Hg (1016.7 mb)
[Sea-level pressure: 1016.5 mb]
Winds: from the SW (230 degrees) at 7 MPH (6 knots; 3.1 m/s)
Visibility: 10 or more miles (16+ km)
Ceiling: at least 12,000 feet AGL
Clouds: sky clear below 12,000 feet AGL
Present Weather: automated observation with no human augmentation;
there may or may not be significant weather present at this time
KSPG 230253Z AUTO 23006KT 10SM CLR 28/25 A3002 RMK AO2 SLP165 T02830250 56006

Conditions at: KSPG observed 23 July 2017  01:53 UTC
Temperature: 28.3°C (83°F)
Dewpoint: 23.9°C (75°F) [RH = 77%]
Pressure (altimeter): 30.03 inches Hg (1017.0 mb)
[Sea-level pressure: 1016.7 mb]
Winds: from the S (180 degrees) at 10 MPH (9 knots; 4.7 m/s)
Visibility: 10 or more miles (16+ km)
Ceiling: at least 12,000 feet AGL
Clouds: sky clear below 12,000 feet AGL
Present Weather: automated observation with no human augmentation;
there may or may not be significant weather present at this time
KSPG 230153Z AUTO 18009KT 10SM CLR 28/24 A3003 RMK AO2 LTG DSNT SW SLP167 T02830239

Conditions at: KSPG observed 23 July 2017  00:53 UTC
Temperature: 28.9°C (84°F)
Dewpoint: 24.4°C (76°F) [RH = 77%]
Pressure (altimeter): 30.03 inches Hg (1017.0 mb)
[Sea-level pressure: 1016.9 mb]
Winds: from the S (180 degrees) at 8 MPH (7 knots; 3.6 m/s)
Visibility: 10 or more miles (16+ km)
Ceiling: at least 12,000 feet AGL
Clouds: sky clear below 12,000 feet AGL
Present Weather: automated observation with no human augmentation;
there may or may not be significant weather present at this time
KSPG 230053Z AUTO 18007KT 10SM CLR 29/24 A3003 RMK AO2 LTG DSNT SW SLP169 T02890244

Conditions at: KSPG observed 22 July 2017  23:53 UTC
Temperature: 29.4°C (85°F)
Dewpoint: 23.3°C (74°F) [RH = 70%]
Pressure (altimeter): 30.04 inches Hg (1017.4 mb)
[Sea-level pressure: 1017.1 mb]
Winds: from the S (180 degrees) at 7 MPH (6 knots; 3.1 m/s)
Visibility: 10 or more miles (16+ km)
Ceiling: at least 12,000 feet AGL
Clouds: sky clear below 12,000 feet AGL
Present Weather: no significant weather observed at this time
KSPG 222353Z 18006KT 10SM CLR 29/23 A3004 RMK AO2 LTG DSNT S AND SW SLP171 T02940233 10300 20283 53004

Conditions at: KSPG observed 22 July 2017  22:53 UTC
Temperature: 30.0°C (86°F)
Dewpoint: 22.2°C (72°F) [RH = 63%]
Pressure (altimeter): 30.03 inches Hg (1017.0 mb)
[Sea-level pressure: 1016.8 mb]
Winds: from the WSW (240 degrees) at 7 MPH (6 knots; 3.1 m/s)
Visibility: 10 or more miles (16+ km)
Ceiling: at least 12,000 feet AGL
Clouds: sky clear below 12,000 feet AGL
Present Weather: no significant weather observed at this time
KSPG 222253Z 24006KT 10SM CLR 30/22 A3003 RMK AO2 SLP168 T03000222

Conditions at: KSPG observed 22 July 2017  21:53 UTC
Temperature: 29.4°C (85°F)
Dewpoint: 22.2°C (72°F) [RH = 65%]
Pressure (altimeter): 30.03 inches Hg (1017.0 mb)
[Sea-level pressure: 1017.0 mb]
Winds: from the W (260 degrees) at 6 MPH (5 knots; 2.6 m/s)
Visibility: 10 or more miles (16+ km)
Ceiling: at least 12,000 feet AGL
Clouds: sky clear below 12,000 feet AGL
Present Weather: no significant weather observed at this time
KSPG 222153Z 26005KT 10SM CLR 29/22 A3003 RMK AO2 LTG DSNT SW SLP170 T02940222

Conditions at: KSPG observed 22 July 2017  20:53 UTC
Temperature: 29.4°C (85°F)
Dewpoint: 21.7°C (71°F) [RH = 63%]
Pressure (altimeter): 30.03 inches Hg (1017.0 mb)
[Sea-level pressure: 1016.7 mb]
Winds: from the W (270 degrees) at 8 MPH (7 knots; 3.6 m/s)
Visibility: 10 or more miles (16+ km)
Ceiling: at least 12,000 feet AGL
Clouds: sky clear below 12,000 feet AGL
Present Weather: no significant weather observed at this time
KSPG 222053Z 27007KT 10SM CLR 29/22 A3003 RMK AO2 LTG DSNT NE AND SW SLP167 T02940217 58012

Conditions at: KSPG observed 22 July 2017  19:53 UTC
Temperature: 28.3°C (83°F)
Dewpoint: 22.8°C (73°F) [RH = 72%]
Pressure (altimeter): 30.04 inches Hg (1017.4 mb)
[Sea-level pressure: 1017.1 mb]
Winds: from the WSW (240 degrees) at 10 MPH (9 knots; 4.7 m/s)
gusting to 21 MPH (18 knots; 9.4 m/s)
Visibility: 10 or more miles (16+ km)
Ceiling: at least 12,000 feet AGL
Clouds: sky clear below 12,000 feet AGL
Present Weather: no significant weather observed at this time
KSPG 221953Z 24009G18KT 10SM CLR 28/23 A3004 RMK AO2 LTG DSNT SE AND S TSB18 SLP171 T02830228

Conditions at: KSPG observed 22 July 2017  19:24 UTC
Temperature: 30.0°C (86°F)
Dewpoint: 21.1°C (70°F) [RH = 59%]
Pressure (altimeter): 30.05 inches Hg (1017.7 mb)
Winds: from the SW (220 degrees) at 9 MPH (8 knots; 4.2 m/s)
Visibility: 10 or more miles (16+ km)
Ceiling: at least 12,000 feet AGL
Clouds: few clouds at 3000 feet AGL
Present Weather: TS  (thunderstorm)
KSPG 221924Z 22008KT 10SM TS FEW030 30/21 A3005 RMK AO2 LTG DSNT E-SW TSB18 T03000211

Conditions at: KSPG observed 22 July 2017  18:53 UTC
Temperature: 29.4°C (85°F)
Dewpoint: 21.7°C (71°F) [RH = 63%]
Pressure (altimeter): 30.05 inches Hg (1017.7 mb)
[Sea-level pressure: 1017.6 mb]
Winds: from the SW (230 degrees) at 9 MPH (8 knots; 4.2 m/s)
Visibility: 10 or more miles (16+ km)
Ceiling: at least 12,000 feet AGL
Clouds: scattered clouds at 2400 feet AGL
scattered clouds at 3500 feet AGL
Present Weather: VCTS  (thunderstorm in vicinity)
KSPG 221853Z 23008KT 10SM VCTS SCT024 SCT035 29/22 A3005 RMK AO2 LTG DSNT E-SW SLP176 T02940217

Conditions at: KSPG observed 22 July 2017  18:29 UTC
Temperature: 30.6°C (87°F)
Dewpoint: 24.4°C (76°F) [RH = 70%]
Pressure (altimeter): 30.05 inches Hg (1017.7 mb)
Winds: from the SSW (200 degrees) at 13 MPH (11 knots; 5.7 m/s)
Visibility: 10 or more miles (16+ km)
Ceiling: 2500 feet AGL
Clouds: broken clouds at 2500 feet AGL
broken clouds at 3300 feet AGL
Present Weather: no significant weather observed at this time
KSPG 221829Z 20011KT 10SM BKN025 BKN033 31/24 A3005 RMK AO2 LTG DSNT S-W T03060244

Conditions at: KSPG observed 22 July 2017  18:17 UTC
Temperature: 30.6°C (87°F)
Dewpoint: 23.9°C (75°F) [RH = 68%]
Pressure (altimeter): 30.06 inches Hg (1018.0 mb)
Winds: from the S (190 degrees) at 12 MPH (10 knots; 5.2 m/s)
Visibility: 10 or more miles (16+ km)
Ceiling: 2700 feet AGL
Clouds: broken clouds at 2700 feet AGL
broken clouds at 3400 feet AGL
Present Weather: VCTS  (thunderstorm in vicinity)
KSPG 221817Z 19010KT 10SM VCTS BKN027 BKN034 31/24 A3006 RMK AO2 LTG DSNT NE AND S AND W T03060239

Conditions at: KSPG observed 22 July 2017  18:00 UTC
Temperature: 30.6°C (87°F)
Dewpoint: 24.4°C (76°F) [RH = 70%]
Pressure (altimeter): 30.06 inches Hg (1018.0 mb)
Winds: from the S (190 degrees) at 12 MPH (10 knots; 5.2 m/s)
Visibility: 10 or more miles (16+ km)
Ceiling: 3400 feet AGL
Clouds: scattered clouds at 2600 feet AGL
broken clouds at 3400 feet AGL
Present Weather: VCTS  (thunderstorm in vicinity)
KSPG 221800Z 19010KT 10SM VCTS SCT026 BKN034 31/24 A3006 RMK AO2 LTG DSNT ALQDS T03060244

Conditions at: KSPG observed 22 July 2017  17:53 UTC
Temperature: 30.6°C (87°F)
Dewpoint: 24.4°C (76°F) [RH = 70%]
Pressure (altimeter): 30.06 inches Hg (1018.0 mb)
[Sea-level pressure: 1017.9 mb]
Winds: from the S (190 degrees) at 14 MPH (12 knots; 6.2 m/s)
Visibility: 10 or more miles (16+ km)
Ceiling: 3300 feet AGL
Clouds: scattered clouds at 2600 feet AGL
broken clouds at 3300 feet AGL
Present Weather: no significant weather observed at this time
KSPG 221753Z 19012KT 10SM SCT026 BKN033 31/24 A3006 RMK AO2 LTG DSNT ALQDS SLP179 60007 T03060244 10311 20267 58009

Conditions at: KSPG observed 22 July 2017  16:53 UTC
Temperature: 30.0°C (86°F)
Dewpoint: 25.0°C (77°F) [RH = 75%]
Pressure (altimeter): 30.07 inches Hg (1018.4 mb)
[Sea-level pressure: 1018.2 mb]
Winds: from the SSW (200 degrees) at 9 MPH (8 knots; 4.2 m/s)
Visibility: 10 or more miles (16+ km)
Ceiling: at least 12,000 feet AGL
Clouds: sky clear below 12,000 feet AGL
Present Weather: no significant weather observed at this time
KSPG 221653Z 20008KT 10SM CLR 30/25 A3007 RMK AO2 LTG DSNT N AND NW SLP182 T03000250

Conditions at: KSPG observed 22 July 2017  15:53 UTC
Temperature: 28.9°C (84°F)
Dewpoint: 24.4°C (76°F) [RH = 77%]
Pressure (altimeter): 30.09 inches Hg (1019.0 mb)
[Sea-level pressure: 1018.8 mb]
Winds: from the SSW (210 degrees) at 8 MPH (7 knots; 3.6 m/s)
Visibility: 10 or more miles (16+ km)
Ceiling: at least 12,000 feet AGL
Clouds: sky clear below 12,000 feet AGL
Present Weather: no significant weather observed at this time
KSPG 221553Z 21007KT 10SM CLR 29/24 A3009 RMK AO2 LTG DSNT NW RAB02E11 SLP188 P0000 T02890244

Conditions at: KSPG observed 22 July 2017  14:53 UTC
Temperature: 27.8°C (82°F)
Dewpoint: 23.3°C (74°F) [RH = 77%]
Pressure (altimeter): 30.09 inches Hg (1019.0 mb)
[Sea-level pressure: 1018.9 mb]
Winds: from the SW (220 degrees) at 7 MPH (6 knots; 3.1 m/s)
Visibility: 10 or more miles (16+ km)
Ceiling: 4500 feet AGL
Clouds: scattered clouds at 3300 feet AGL
broken clouds at 4500 feet AGL
broken clouds at 11000 feet AGL
Present Weather: no significant weather observed at this time
KSPG 221453Z 22006KT 10SM SCT033 BKN045 BKN110 28/23 A3009 RMK AO2 LTG DSNT ALQDS RAB30E42 TSB22 SLP189 P0000 60007 T02780233 50007

Conditions at: KSPG observed 22 July 2017  14:48 UTC
Temperature: 28.0°C (82°F)
Dewpoint: 23.0°C (73°F) [RH = 74%]
Pressure (altimeter): 30.10 inches Hg (1019.4 mb)
Winds: from the SW (220 degrees) at 10 MPH (9 knots; 4.7 m/s)
Visibility: 10 or more miles (16+ km)
Ceiling: 4500 feet AGL
Clouds: few clouds at 3300 feet AGL
broken clouds at 4500 feet AGL
broken clouds at 11000 feet AGL
Present Weather: no significant weather observed at this time
KSPG 221448Z 22009KT 10SM FEW033 BKN045 BKN110 28/23 A3010 RMK AO2 LTG DSNT ALQDS RAB30E42 TSB22 P0000

Conditions at: KSPG observed 22 July 2017  14:28 UTC
Temperature: 27.8°C (82°F)
Dewpoint: 25.0°C (77°F) [RH = 85%]
Pressure (altimeter): 30.09 inches Hg (1019.0 mb)
Winds: from the S (190 degrees) at 14 MPH (12 knots; 6.2 m/s)
Visibility: 10 or more miles (16+ km)
Ceiling: 4200 feet AGL
Clouds: few clouds at 1400 feet AGL
broken clouds at 4200 feet AGL
broken clouds at 8000 feet AGL
Present Weather: TS  (thunderstorm)
KSPG 221428Z 19012KT 10SM TS FEW014 BKN042 BKN080 28/25 A3009 RMK AO2 LTG DSNT ALQDS TSB22 T02780250

Conditions at: KSPG observed 22 July 2017  13:53 UTC
Temperature: 28.9°C (84°F)
Dewpoint: 23.9°C (75°F) [RH = 74%]
Pressure (altimeter): 30.09 inches Hg (1019.0 mb)
[Sea-level pressure: 1018.8 mb]
Winds: from the SSW (200 degrees) at 8 MPH (7 knots; 3.6 m/s)
Visibility: 10 or more miles (16+ km)
Ceiling: at least 12,000 feet AGL
Clouds: sky clear below 12,000 feet AGL
Present Weather: no significant weather observed at this time
KSPG 221353Z 20007KT 10SM CLR 29/24 A3009 RMK AO2 LTG DSNT ALQDS RAE28 TSE08 SLP188 P0001 T02890239

Conditions at: KSPG observed 22 July 2017  13:34 UTC
Temperature: 28.3°C (83°F)
Dewpoint: 23.3°C (74°F) [RH = 74%]
Pressure (altimeter): 30.09 inches Hg (1019.0 mb)
Winds: from the S (180 degrees) at 6 MPH (5 knots; 2.6 m/s)
Visibility: 10 or more miles (16+ km)
Ceiling: at least 12,000 feet AGL
Clouds: few clouds at 4500 feet AGL
scattered clouds at 11000 feet AGL
Present Weather: no significant weather observed at this time
KSPG 221334Z 18005KT 10SM FEW045 SCT110 28/23 A3009 RMK AO2 LTG DSNT ALQDS RAE28 TSE08 P0001 T02830233

Conditions at: KSPG observed 22 July 2017  13:14 UTC
Temperature: 27.2°C (81°F)
Dewpoint: 23.3°C (74°F) [RH = 79%]
Pressure (altimeter): 30.08 inches Hg (1018.7 mb)
Winds: from the S (180 degrees) at 6 MPH (5 knots; 2.6 m/s)
Visibility: 10 or more miles (16+ km)
Ceiling: 11000 feet AGL
Clouds: few clouds at 5500 feet AGL
scattered clouds at 7500 feet AGL
broken clouds at 11000 feet AGL
Present Weather: VCTS -RA  (thunderstorm in vicinity, light rain)
KSPG 221314Z 18005KT 10SM VCTS -RA FEW055 SCT075 BKN110 27/23 A3008 RMK AO2 LTG DSNT ALQDS TSE08 P0001 T02720233

Conditions at: KSPG observed 22 July 2017  12:53 UTC
Temperature: 26.7°C (80°F)
Dewpoint: 22.2°C (72°F) [RH = 76%]
Pressure (altimeter): 30.07 inches Hg (1018.4 mb)
[Sea-level pressure: 1018.1 mb]
Winds: from the W (270 degrees) at 5 MPH (4 knots; 2.1 m/s)
Visibility: 8 miles (13 km)
Ceiling: 7000 feet AGL
Clouds: scattered clouds at 2400 feet AGL
broken clouds at 7000 feet AGL
overcast cloud deck at 10000 feet AGL
Present Weather: -TSRA  (light rain associated with thunderstorm(s))
KSPG 221253Z 27004KT 8SM -TSRA SCT024 BKN070 OVC100 27/22 A3007 RMK AO2 LTG DSNT ALQDS RAB33 TSB1154 SLP181 P0006 T02670222

Conditions at: KSPG observed 22 July 2017  12:00 UTC
Temperature: 28.3°C (83°F)
Dewpoint: 25.6°C (78°F) [RH = 85%]
Pressure (altimeter): 30.05 inches Hg (1017.7 mb)
Winds: from the S (180 degrees) at 14 MPH (12 knots; 6.2 m/s)
Visibility: 10 or more miles (16+ km)
Ceiling: at least 12,000 feet AGL
Clouds: few clouds at 6000 feet AGL
Present Weather: TS  (thunderstorm)
KSPG 221200Z 18012KT 10SM TS FEW060 28/26 A3005 RMK AO2 LTG DSNT ALQDS TSB1154 T02830256

Conditions at: KSPG observed 22 July 2017  11:53 UTC
Temperature: 28.3°C (83°F)
Dewpoint: 25.6°C (78°F) [RH = 85%]
Pressure (altimeter): 30.05 inches Hg (1017.7 mb)
[Sea-level pressure: 1017.6 mb]
Winds: from the S (190 degrees) at 13 MPH (11 knots; 5.7 m/s)
Visibility: 10 or more miles (16+ km)
Ceiling: at least 12,000 feet AGL
Clouds: sky clear below 12,000 feet AGL
Present Weather: VCTS  (thunderstorm in vicinity)
KSPG 221153Z 19011KT 10SM VCTS CLR 28/26 A3005 RMK AO2 LTG DSNT ALQDS RAE08 SLP176 P0000 60006 70014 T02830256 10283 20272 53019

Conditions at: KSPG observed 22 July 2017  11:45 UTC
Temperature: 28.3°C (83°F)
Dewpoint: 25.6°C (78°F) [RH = 85%]
Pressure (altimeter): 30.04 inches Hg (1017.4 mb)
Winds: from the S (180 degrees) at 9 MPH (8 knots; 4.2 m/s)
Visibility: 10 or more miles (16+ km)
Ceiling: at least 12,000 feet AGL
Clouds: sky clear below 12,000 feet AGL
Present Weather: VCTS  (thunderstorm in vicinity)
KSPG 221145Z 18008KT 10SM VCTS CLR 28/26 A3004 RMK AO2 LTG DSNT N AND SE AND S RAE08 P0000 T02830256

Conditions at: KSPG observed 22 July 2017  10:53 UTC
Temperature: 27.8°C (82°F)
Dewpoint: 25.6°C (78°F) [RH = 88%]
Pressure (altimeter): 30.02 inches Hg (1016.7 mb)
[Sea-level pressure: 1016.7 mb]
Winds: from the S (170 degrees) at 10 MPH (9 knots; 4.7 m/s)
Visibility: 10 or more miles (16+ km)
Ceiling: 5500 feet AGL
Clouds: scattered clouds at 2300 feet AGL
scattered clouds at 4500 feet AGL
broken clouds at 5500 feet AGL
Present Weather: -RA  (light rain)
KSPG 221053Z 17009KT 10SM -RA SCT023 SCT045 BKN055 28/26 A3002 RMK AO2 LTG DSNT S RAB40 SLP167 P0006 T02780256

Conditions at: KSPG observed 22 July 2017  10:21 UTC
Temperature: 27.8°C (82°F)
Dewpoint: 25.0°C (77°F) [RH = 85%]
Pressure (altimeter): 30.02 inches Hg (1016.7 mb)
Winds: from the S (180 degrees) at 7 MPH (6 knots; 3.1 m/s)
Visibility: 10 or more miles (16+ km)
Ceiling: at least 12,000 feet AGL
Clouds: few clouds at 9500 feet AGL
Present Weather: automated observation with no human augmentation;
there may or may not be significant weather present at this time
KSPG 221021Z AUTO 18006KT 10SM FEW095 28/25 A3002 RMK AO2 LTG DSNT N T02780250

Conditions at: KSPG observed 22 July 2017  09:53 UTC
Temperature: 27.8°C (82°F)
Dewpoint: 25.6°C (78°F) [RH = 88%]
Pressure (altimeter): 30.01 inches Hg (1016.3 mb)
[Sea-level pressure: 1016.1 mb]
Winds: calm
Visibility: 10 or more miles (16+ km)
Ceiling: at least 12,000 feet AGL
Clouds: few clouds at 2000 feet AGL
few clouds at 6500 feet AGL
Present Weather: VCTS  (thunderstorm in vicinity)
KSPG 220953Z AUTO 00000KT 10SM VCTS FEW020 FEW065 28/26 A3001 RMK AO2 LTG DSNT N SLP161 T02780256

Conditions at: KSPG observed 22 July 2017  09:38 UTC
Temperature: 27.8°C (82°F)
Dewpoint: 25.0°C (77°F) [RH = 85%]
Pressure (altimeter): 30.00 inches Hg (1016.0 mb)
Winds: from the S (180 degrees) at 10 MPH (9 knots; 4.7 m/s)
Visibility: 10 or more miles (16+ km)
Ceiling: at least 12,000 feet AGL
Clouds: few clouds at 6500 feet AGL
Present Weather: VCTS  (thunderstorm in vicinity)
KSPG 220938Z AUTO 18009KT 10SM VCTS FEW065 28/25 A3000 RMK AO2 T02780250

Conditions at: KSPG observed 22 July 2017  09:24 UTC
Temperature: 27.8°C (82°F)
Dewpoint: 25.0°C (77°F) [RH = 85%]
Pressure (altimeter): 30.00 inches Hg (1016.0 mb)
Winds: from the S (180 degrees) at 10 MPH (9 knots; 4.7 m/s)
Visibility: 10 or more miles (16+ km)
Ceiling: at least 12,000 feet AGL
Clouds: few clouds at 7000 feet AGL
Present Weather: automated observation with no human augmentation;
there may or may not be significant weather present at this time
KSPG 220924Z AUTO 18009KT 10SM FEW070 28/25 A3000 RMK AO2 T02780250